createdAt,value
2023-03-15T00:01:52.476Z,96978.13
2023-03-15T00:04:22.522Z,96988.16
2023-03-15T00:06:50.575Z,96982.19
2023-03-15T00:09:18.625Z,96988.81
2023-03-15T00:11:49.023Z,96988.91
2023-03-15T00:14:17.068Z,96989.38
2023-03-15T00:16:45.033Z,96977.50
2023-03-15T00:19:13.341Z,96979.81
2023-03-15T00:21:43.478Z,96981.53
2023-03-15T00:24:13.102Z,96984.84
2023-03-15T00:26:41.427Z,96977.53
2023-03-15T00:29:09.574Z,96993.44
2023-03-15T00:31:37.514Z,96996.84
2023-03-15T00:34:05.568Z,97006.34
2023-03-15T00:36:33.712Z,97012.72
2023-03-15T00:39:03.716Z,97012.19
2023-03-15T00:41:32.171Z,97018.81
2023-03-15T00:44:00.457Z,97028.72
2023-03-15T00:46:28.522Z,97026.06
2023-03-15T00:48:56.528Z,97043.34
2023-03-15T00:51:25.218Z,97038.13
2023-03-15T00:53:54.123Z,97042.44
2023-03-15T00:56:30.088Z,97041.84
2023-03-15T00:58:58.511Z,97038.63
2023-03-15T01:01:27.536Z,97052.03
2023-03-15T01:03:56.026Z,97055.75
2023-03-15T01:06:24.892Z,97059.91
2023-03-15T01:08:54.536Z,97064.72
2023-03-15T01:11:24.423Z,97072.56
2023-03-15T01:13:54.522Z,97080.88
2023-03-15T01:16:22.835Z,97079.16
2023-03-15T01:18:51.636Z,97075.00
2023-03-15T01:21:19.724Z,97081.81
2023-03-15T01:23:47.801Z,97075.03
2023-03-15T01:26:17.253Z,97079.06
2023-03-15T01:28:45.234Z,97075.13
2023-03-15T01:31:18.294Z,97085.88
2023-03-15T01:33:46.335Z,97088.97
2023-03-15T01:36:14.514Z,97091.25
2023-03-15T01:38:42.628Z,97095.50
2023-03-15T01:41:11.180Z,97092.38
2023-03-15T01:43:39.647Z,97103.72
2023-03-15T01:46:34.318Z,97107.50
2023-03-15T01:49:06.267Z,97105.59
2023-03-15T01:51:37.061Z,97104.38
2023-03-15T01:54:08.050Z,97105.97
2023-03-15T01:56:36.645Z,97105.97
2023-03-15T01:59:05.861Z,97113.81
2023-03-15T02:01:35.460Z,97107.09
2023-03-15T02:04:05.159Z,97109.94
2023-03-15T02:06:34.967Z,97106.34
2023-03-15T02:09:04.678Z,97110.34
2023-03-15T02:11:32.969Z,97111.34
2023-03-15T02:14:01.015Z,97102.19
2023-03-15T02:16:30.326Z,97113.19
2023-03-15T02:18:59.821Z,97119.19
2023-03-15T02:21:34.922Z,97122.22
2023-03-15T02:24:07.381Z,97114.66
2023-03-15T02:26:38.722Z,97119.97
2023-03-15T02:29:08.505Z,97117.13
2023-03-15T02:31:38.322Z,97111.09
2023-03-15T02:34:06.856Z,97109.94
2023-03-15T02:36:35.239Z,97113.22
2023-03-15T02:39:03.481Z,97114.69
2023-03-15T02:41:33.723Z,97111.66
2023-03-15T02:44:04.663Z,97115.22
2023-03-15T02:46:37.106Z,97122.03
2023-03-15T02:49:05.097Z,97124.94
2023-03-15T02:51:33.561Z,97124.97
2023-03-15T02:54:01.533Z,97125.91
2023-03-15T02:56:29.576Z,97131.09
2023-03-15T02:58:57.664Z,97127.63
2023-03-15T03:01:25.802Z,97133.06
2023-03-15T03:03:55.246Z,97137.91
2023-03-15T03:06:23.274Z,97132.44
2023-03-15T03:08:51.328Z,97146.44
2023-03-15T03:11:19.530Z,97146.31
2023-03-15T03:13:47.628Z,97155.94
2023-03-15T03:16:15.761Z,97152.44
2023-03-15T03:18:43.860Z,97148.09
2023-03-15T03:21:14.881Z,97155.31
2023-03-15T03:23:46.381Z,97156.50
2023-03-15T03:26:17.146Z,97162.25
2023-03-15T03:28:45.722Z,97175.00
2023-03-15T03:31:17.945Z,97175.09
2023-03-15T03:33:46.005Z,97173.19
2023-03-15T03:36:16.910Z,97187.94
2023-03-15T03:38:46.012Z,97181.03
2023-03-15T03:41:14.405Z,97180.84
2023-03-15T03:43:42.389Z,97182.19
2023-03-15T03:46:10.490Z,97185.59
2023-03-15T03:48:40.578Z,97177.19
2023-03-15T03:51:08.636Z,97190.97
2023-03-15T03:53:38.295Z,97186.91
2023-03-15T03:56:06.695Z,97188.78
2023-03-15T03:58:35.090Z,97195.03
2023-03-15T04:01:04.109Z,97196.50
2023-03-15T04:03:32.650Z,97186.59
2023-03-15T04:06:01.305Z,97202.31
2023-03-15T04:08:29.295Z,97202.69
2023-03-15T04:11:00.294Z,97206.06
2023-03-15T04:13:28.266Z,97206.53
2023-03-15T04:15:57.835Z,97203.00
2023-03-15T04:18:26.465Z,97205.34
2023-03-15T04:20:54.866Z,97211.88
2023-03-15T04:23:23.462Z,97215.34
2023-03-15T04:25:51.462Z,97219.75
2023-03-15T04:28:20.890Z,97217.69
2023-03-15T04:30:49.550Z,97228.97
2023-03-15T04:33:17.957Z,97232.72
2023-03-15T04:35:46.239Z,97230.69
2023-03-15T04:38:14.492Z,97242.41
2023-03-15T04:40:42.986Z,97241.56
2023-03-15T04:43:10.958Z,97240.56
2023-03-15T04:45:40.361Z,97239.34
2023-03-15T04:48:08.541Z,97245.72
2023-03-15T04:50:36.527Z,97243.84
2023-03-15T04:53:04.564Z,97243.91
2023-03-15T04:55:32.828Z,97245.53
2023-03-15T04:58:01.177Z,97253.94
2023-03-15T05:00:29.289Z,97256.91
2023-03-15T05:02:58.812Z,97258.38
2023-03-15T05:05:26.944Z,97265.84
2023-03-15T05:07:55.129Z,97258.50
2023-03-15T05:10:23.499Z,97259.84
2023-03-15T05:12:51.527Z,97259.66
2023-03-15T05:15:19.623Z,97255.94
2023-03-15T05:17:48.751Z,97262.84
2023-03-15T05:20:18.410Z,97265.28
2023-03-15T05:22:46.452Z,97264.66
2023-03-15T05:25:15.443Z,97268.94
2023-03-15T05:27:46.444Z,97273.81
2023-03-15T05:30:15.583Z,97281.22
2023-03-15T05:32:44.975Z,97287.69
2023-03-15T05:35:13.124Z,97285.66
2023-03-15T05:37:43.068Z,97294.44
2023-03-15T05:40:12.287Z,97301.44
2023-03-15T05:42:40.273Z,97299.44
2023-03-15T05:45:11.323Z,97307.38
2023-03-15T05:47:39.382Z,97307.38
2023-03-15T05:50:08.267Z,97305.88
2023-03-15T05:52:36.654Z,97323.31
2023-03-15T05:55:06.611Z,97324.38
2023-03-15T05:57:34.789Z,97333.72
2023-03-15T06:00:05.349Z,97332.09
2023-03-15T06:02:33.430Z,97338.97
2023-03-15T06:05:01.464Z,97345.72
2023-03-15T06:07:29.556Z,97344.47
2023-03-15T06:09:57.933Z,97349.25
2023-03-15T06:12:27.370Z,97352.44
2023-03-15T06:14:55.378Z,97356.41
2023-03-15T06:17:23.856Z,97353.84
2023-03-15T06:19:52.509Z,97357.66
2023-03-15T06:22:21.140Z,97364.44
2023-03-15T06:24:49.266Z,97365.81
2023-03-15T06:27:22.081Z,97366.16
2023-03-15T06:29:52.329Z,97364.78
2023-03-15T06:32:20.484Z,97373.13
2023-03-15T06:34:52.778Z,97370.06
2023-03-15T06:37:34.597Z,97386.94
2023-03-15T06:40:06.075Z,97383.28
2023-03-15T06:42:34.391Z,97389.09
2023-03-15T06:45:08.171Z,97393.16
2023-03-15T06:47:37.237Z,97398.56
2023-03-15T06:50:05.530Z,97401.03
2023-03-15T06:52:33.641Z,97405.72
2023-03-15T06:55:01.984Z,97410.22
2023-03-15T06:57:31.643Z,97409.81
2023-03-15T06:59:59.817Z,97417.72
2023-03-15T07:02:33.982Z,97420.72
2023-03-15T07:05:02.943Z,97412.94
2023-03-15T07:07:30.992Z,97414.16
2023-03-15T07:09:59.864Z,97421.66
2023-03-15T07:12:27.928Z,97423.53
2023-03-15T07:14:56.419Z,97430.66
2023-03-15T07:17:24.728Z,97437.59
2023-03-15T07:19:56.832Z,97442.00
2023-03-15T07:22:25.322Z,97459.00
2023-03-15T07:24:53.983Z,97452.88
2023-03-15T07:27:22.051Z,97462.69
2023-03-15T07:29:50.371Z,97463.00
2023-03-15T07:32:18.877Z,97470.28
2023-03-15T07:34:48.080Z,97461.38
2023-03-15T07:37:18.341Z,97471.56
2023-03-15T07:39:46.712Z,97472.75
2023-03-15T07:42:14.893Z,97476.50
2023-03-15T07:44:43.296Z,97480.16
2023-03-15T07:47:11.881Z,97489.06
2023-03-15T07:49:39.847Z,97493.66
2023-03-15T07:52:08.601Z,97495.19
2023-03-15T07:54:38.558Z,97506.88
2023-03-15T07:57:07.081Z,97502.44
2023-03-15T07:59:35.076Z,97507.06
2023-03-15T08:02:03.462Z,97516.59
2023-03-15T08:04:31.859Z,97517.53
2023-03-15T08:07:00.250Z,97516.78
2023-03-15T08:09:28.906Z,97517.00
2023-03-15T08:11:58.323Z,97526.06
2023-03-15T08:14:26.633Z,97533.75
2023-03-15T08:16:55.151Z,97532.13
2023-03-15T08:19:23.353Z,97543.91
2023-03-15T08:21:53.894Z,97543.38
2023-03-15T08:24:22.675Z,97542.53
2023-03-15T08:26:51.327Z,97550.72
2023-03-15T08:29:20.851Z,97550.63
2023-03-15T08:31:49.076Z,97548.28
2023-03-15T08:34:17.683Z,97548.34
2023-03-15T08:36:47.560Z,97547.56
2023-03-15T08:39:16.048Z,97556.22
2023-03-15T08:41:45.933Z,97555.78
2023-03-15T08:44:14.136Z,97557.91
2023-03-15T08:46:43.650Z,97557.97
2023-03-15T08:49:11.738Z,97564.41
2023-03-15T08:51:40.068Z,97567.28
2023-03-15T08:54:08.137Z,97567.97
2023-03-15T08:56:36.311Z,97574.72
2023-03-15T08:59:06.912Z,97577.59
2023-03-15T09:01:34.932Z,97571.84
2023-03-15T09:04:06.872Z,97580.59
2023-03-15T09:06:35.118Z,97576.66
2023-03-15T09:09:03.770Z,97591.50
2023-03-15T09:11:31.857Z,97592.47
2023-03-15T09:13:59.893Z,97579.81
2023-03-15T09:16:28.458Z,97586.88
2023-03-15T09:18:56.594Z,97588.78
2023-03-15T09:21:27.672Z,97582.53
2023-03-15T09:23:55.654Z,97582.03
2023-03-15T09:26:23.662Z,97586.31
2023-03-15T09:28:51.770Z,97589.41
2023-03-15T09:31:20.007Z,97587.88
2023-03-15T09:33:50.228Z,97586.50
2023-03-15T09:36:18.265Z,97585.00
2023-03-15T09:38:48.457Z,97582.34
2023-03-15T09:41:19.012Z,97588.31
2023-03-15T09:44:04.352Z,97595.13
2023-03-15T09:46:32.996Z,97606.47
2023-03-15T09:49:04.470Z,97598.38
2023-03-15T09:51:37.028Z,97603.28
2023-03-15T09:54:07.812Z,97598.44
2023-03-15T09:56:36.915Z,97604.06
2023-03-15T09:59:05.428Z,97613.50
2023-03-15T10:01:37.452Z,97609.66
2023-03-15T10:04:09.890Z,97612.09
2023-03-15T10:06:38.463Z,97614.19
2023-03-15T10:09:13.933Z,97601.03
2023-03-15T10:11:45.427Z,97601.88
2023-03-15T10:14:19.828Z,97593.03
2023-03-15T10:16:48.894Z,97603.63
2023-03-15T10:19:23.459Z,97590.75
2023-03-15T10:21:55.784Z,97592.97
2023-03-15T10:24:30.067Z,97587.00
2023-03-15T10:26:59.041Z,97598.75
2023-03-15T10:29:27.268Z,97586.78
2023-03-15T10:31:55.527Z,97589.50
2023-03-15T10:34:26.313Z,97595.59
2023-03-15T10:36:55.557Z,97597.41
2023-03-15T10:39:25.879Z,97591.00
2023-03-15T10:41:53.899Z,97591.88
2023-03-15T10:44:22.711Z,97597.06
2023-03-15T10:47:05.041Z,97594.56
2023-03-15T10:49:42.568Z,97593.00
2023-03-15T10:52:29.658Z,97581.66
2023-03-15T10:55:04.385Z,97586.09
2023-03-15T10:57:36.113Z,97585.88
2023-03-15T11:00:10.286Z,97590.44
2023-03-15T11:02:38.635Z,97590.50
2023-03-15T11:05:17.263Z,97599.19
2023-03-15T11:07:55.314Z,97603.97
2023-03-15T11:10:27.143Z,97594.63
2023-03-15T11:13:10.331Z,97606.50
2023-03-15T11:15:38.867Z,97602.78
2023-03-15T11:18:09.101Z,97608.34
2023-03-15T11:20:38.472Z,97611.34
2023-03-15T11:23:15.068Z,97619.16
2023-03-15T11:25:44.476Z,97610.97
2023-03-15T11:28:17.339Z,97615.25
2023-03-15T11:30:47.272Z,97611.19
2023-03-15T11:33:34.122Z,97630.25
2023-03-15T11:36:03.858Z,97633.13
2023-03-15T11:38:34.551Z,97634.66
2023-03-15T11:41:06.566Z,97639.69
2023-03-15T11:43:39.651Z,97638.22
2023-03-15T11:46:10.508Z,97635.03
2023-03-15T11:48:43.956Z,97632.50
2023-03-15T11:51:12.334Z,97638.28
2023-03-15T11:53:44.794Z,97641.78
2023-03-15T11:56:29.711Z,97648.25
2023-03-15T11:59:04.628Z,97646.00
2023-03-15T12:01:32.795Z,97645.69
2023-03-15T12:04:29.772Z,97647.91
2023-03-15T12:06:58.547Z,97654.63
2023-03-15T12:09:49.136Z,97652.66
2023-03-15T12:12:37.994Z,97650.34
2023-03-15T12:15:08.519Z,97652.22
2023-03-15T12:17:45.307Z,97654.88
2023-03-15T12:20:22.342Z,97654.56
2023-03-15T12:22:52.712Z,97654.91
2023-03-15T12:25:26.855Z,97649.75
2023-03-15T12:27:57.379Z,97650.94
2023-03-15T12:30:26.949Z,97645.91
2023-03-15T12:32:55.998Z,97646.00
2023-03-15T12:35:25.129Z,97649.13
2023-03-15T12:37:53.564Z,97652.19
2023-03-15T12:40:39.299Z,97642.91
2023-03-15T12:43:09.370Z,97652.31
2023-03-15T12:45:43.588Z,97646.38
2023-03-15T12:48:25.524Z,97639.84
2023-03-15T12:51:16.123Z,97639.13
2023-03-15T12:54:00.072Z,97635.59
2023-03-15T12:56:36.539Z,97628.13
2023-03-15T12:59:16.017Z,97625.81
2023-03-15T13:01:44.147Z,97617.97
2023-03-15T13:04:12.659Z,97617.31
2023-03-15T13:06:47.689Z,97621.13
2023-03-15T13:09:22.331Z,97620.69
2023-03-15T13:11:52.511Z,97616.03
2023-03-15T13:14:29.101Z,97622.69
2023-03-15T13:16:59.386Z,97625.84
2023-03-15T13:19:27.947Z,97626.34
2023-03-15T13:22:05.017Z,97631.03
2023-03-15T13:24:38.925Z,97617.78
2023-03-15T13:27:09.606Z,97619.00
2023-03-15T13:29:39.101Z,97616.94
2023-03-15T13:32:14.327Z,97625.34
2023-03-15T13:34:42.756Z,97627.13
2023-03-15T13:37:14.312Z,97616.34
2023-03-15T13:39:54.054Z,97615.38
2023-03-15T13:42:23.919Z,97624.22
2023-03-15T13:45:22.667Z,97615.13
2023-03-15T13:47:50.996Z,97608.94
2023-03-15T13:50:22.945Z,97619.09
2023-03-15T13:52:51.040Z,97613.69
2023-03-15T13:55:35.382Z,97618.78
2023-03-15T13:58:07.166Z,97629.28
2023-03-15T14:00:36.790Z,97629.16
2023-03-15T14:03:05.905Z,97626.66
2023-03-15T14:05:36.603Z,97635.84
2023-03-15T14:08:06.144Z,97635.63
2023-03-15T14:10:34.835Z,97644.41
2023-03-15T14:13:19.744Z,97644.88
2023-03-15T14:15:49.579Z,97645.78
2023-03-15T14:18:18.922Z,97643.91
2023-03-15T14:20:47.745Z,97648.13
2023-03-15T14:23:17.637Z,97654.34
2023-03-15T14:25:45.719Z,97648.44
2023-03-15T14:28:14.720Z,97651.75
2023-03-15T14:30:42.760Z,97653.09
2023-03-15T14:33:26.933Z,97649.69
2023-03-15T14:35:55.643Z,97649.34
2023-03-15T14:38:26.002Z,97647.97
2023-03-15T14:40:55.913Z,97645.19
2023-03-15T14:43:25.604Z,97649.59
2023-03-15T14:45:54.128Z,97652.22
2023-03-15T14:48:25.360Z,97656.13
2023-03-15T14:50:53.450Z,97651.75
2023-03-15T14:53:22.541Z,97660.72
2023-03-15T14:55:50.886Z,97657.88
2023-03-15T14:58:19.743Z,97664.00
2023-03-15T15:00:49.677Z,97666.81
2023-03-15T15:03:19.340Z,97675.28
2023-03-15T15:05:48.893Z,97674.16
2023-03-15T15:08:20.031Z,97680.97
2023-03-15T15:10:49.804Z,97676.94
2023-03-15T15:13:19.880Z,97689.47
2023-03-15T15:15:55.747Z,97685.34
2023-03-15T15:18:26.237Z,97681.84
2023-03-15T15:20:56.594Z,97689.22
2023-03-15T15:23:26.170Z,97675.09
2023-03-15T15:25:57.462Z,97681.00
2023-03-15T15:28:34.855Z,97678.44
2023-03-15T15:31:06.797Z,97684.78
2023-03-15T15:33:35.165Z,97680.72
2023-03-15T15:36:04.999Z,97680.81
2023-03-15T15:38:38.369Z,97674.75
2023-03-15T15:41:07.221Z,97681.06
2023-03-15T15:43:35.249Z,97667.69
2023-03-15T15:46:05.060Z,97667.69
2023-03-15T15:48:34.054Z,97670.06
2023-03-15T15:51:03.040Z,97679.91
2023-03-15T15:53:33.516Z,97674.88
2023-03-15T15:56:03.032Z,97680.97
2023-03-15T15:58:33.953Z,97676.69
2023-03-15T16:01:02.084Z,97681.41
2023-03-15T16:03:31.020Z,97686.44
2023-03-15T16:05:59.211Z,97675.13
2023-03-15T16:08:27.309Z,97673.53
2023-03-15T16:10:58.733Z,97675.34
2023-03-15T16:13:27.344Z,97679.59
2023-03-15T16:15:55.663Z,97686.44
2023-03-15T16:18:24.109Z,97680.69
2023-03-15T16:20:53.391Z,97684.50
2023-03-15T16:23:23.681Z,97667.66
2023-03-15T16:25:53.587Z,97675.56
2023-03-15T16:28:23.188Z,97678.09
2023-03-15T16:30:51.738Z,97673.53
2023-03-15T16:33:20.868Z,97675.88
2023-03-15T16:35:50.431Z,97680.75
2023-03-15T16:38:24.328Z,97676.50
2023-03-15T16:40:53.330Z,97682.91
2023-03-15T16:43:22.759Z,97681.94
2023-03-15T16:45:51.087Z,97684.38
2023-03-15T16:48:19.529Z,97681.25
2023-03-15T16:50:48.383Z,97685.97
2023-03-15T16:53:16.895Z,97681.16
2023-03-15T16:55:44.918Z,97684.78
2023-03-15T16:58:16.443Z,97686.03
2023-03-15T17:00:48.380Z,97688.91
2023-03-15T17:03:17.574Z,97694.34
2023-03-15T17:05:46.776Z,97689.44
2023-03-15T17:08:16.967Z,97697.50
2023-03-15T17:10:45.303Z,97699.25
2023-03-15T17:13:15.408Z,97699.25
2023-03-15T17:15:45.365Z,97703.47
2023-03-15T17:18:17.081Z,97699.94
2023-03-15T17:20:45.234Z,97706.38
2023-03-15T17:23:14.140Z,97711.34
2023-03-15T17:25:42.414Z,97714.47
2023-03-15T17:28:10.456Z,97713.09
2023-03-15T17:30:39.301Z,97710.03
2023-03-15T17:33:09.380Z,97707.88
2023-03-15T17:35:39.367Z,97710.81
2023-03-15T17:38:09.123Z,97711.47
2023-03-15T17:40:37.318Z,97716.69
2023-03-15T17:43:10.402Z,97718.69
2023-03-15T17:45:40.708Z,97729.59
2023-03-15T17:48:10.302Z,97728.81
2023-03-15T17:50:38.463Z,97731.97
2023-03-15T17:53:10.384Z,97732.72
2023-03-15T17:55:39.144Z,97736.66
2023-03-15T17:58:11.383Z,97738.94
2023-03-15T18:00:39.820Z,97739.88
2023-03-15T18:03:10.141Z,97733.53
2023-03-15T18:05:38.221Z,97746.88
2023-03-15T18:08:06.704Z,97745.16
2023-03-15T18:10:35.720Z,97748.81
2023-03-15T18:13:03.951Z,97753.03
2023-03-15T18:15:32.191Z,97743.75
2023-03-15T18:18:00.315Z,97749.19
2023-03-15T18:20:29.779Z,97747.31
2023-03-15T18:22:57.871Z,97761.50
2023-03-15T18:25:27.537Z,97764.78
2023-03-15T18:27:55.547Z,97763.75
2023-03-15T18:30:24.140Z,97766.66
2023-03-15T18:32:53.543Z,97766.41
2023-03-15T18:35:24.057Z,97769.41
2023-03-15T18:37:55.986Z,97763.75
2023-03-15T18:40:24.124Z,97773.16
2023-03-15T18:42:52.389Z,97772.31
2023-03-15T18:45:21.655Z,97774.19
2023-03-15T18:47:53.595Z,97776.41
2023-03-15T18:50:22.909Z,97778.22
2023-03-15T18:52:53.459Z,97776.94
2023-03-15T18:55:22.295Z,97784.38
2023-03-15T18:57:52.136Z,97784.16
2023-03-15T19:00:26.263Z,97787.69
2023-03-15T19:02:54.710Z,97796.56
2023-03-15T19:05:22.980Z,97801.13
2023-03-15T19:07:51.209Z,97795.19
2023-03-15T19:10:21.340Z,97799.47
2023-03-15T19:12:49.728Z,97803.13
2023-03-15T19:15:21.528Z,97805.44
2023-03-15T19:17:51.029Z,97800.56
2023-03-15T19:20:24.005Z,97805.63
2023-03-15T19:22:52.534Z,97799.28
2023-03-15T19:25:22.146Z,97797.91
2023-03-15T19:27:50.396Z,97800.31
2023-03-15T19:30:23.173Z,97798.59
2023-03-15T19:32:54.038Z,97800.22
2023-03-15T19:35:24.706Z,97806.28
2023-03-15T19:37:59.325Z,97803.19
2023-03-15T19:40:28.846Z,97800.31
2023-03-15T19:42:56.904Z,97796.03
2023-03-15T19:45:25.390Z,97803.47
2023-03-15T19:47:53.648Z,97808.00
2023-03-15T19:50:21.871Z,97807.56
2023-03-15T19:52:50.277Z,97814.44
2023-03-15T19:55:19.282Z,97802.34
2023-03-15T19:57:48.952Z,97808.34
2023-03-15T20:00:19.236Z,97812.94
2023-03-15T20:02:48.255Z,97804.19
2023-03-15T20:05:17.160Z,97800.75
2023-03-15T20:07:46.309Z,97792.81
2023-03-15T20:10:15.038Z,97800.06
2023-03-15T20:12:45.454Z,97802.84
2023-03-15T20:15:18.306Z,97801.16
2023-03-15T20:17:46.601Z,97805.69
2023-03-15T20:20:14.890Z,97817.88
2023-03-15T20:22:44.078Z,97824.88
2023-03-15T20:25:12.246Z,97821.59
2023-03-15T20:27:40.613Z,97826.16
2023-03-15T20:30:10.339Z,97821.31
2023-03-15T20:32:39.741Z,97818.22
2023-03-15T20:35:10.036Z,97822.25
2023-03-15T20:37:40.288Z,97820.31
2023-03-15T20:40:11.051Z,97828.41
2023-03-15T20:42:39.792Z,97827.81
2023-03-15T20:45:12.454Z,97824.75
2023-03-15T20:47:42.138Z,97829.81
2023-03-15T20:50:13.424Z,97824.38
2023-03-15T20:52:43.050Z,97828.97
2023-03-15T20:55:17.891Z,97834.41
2023-03-15T20:57:46.558Z,97831.50
2023-03-15T21:00:18.712Z,97831.19
2023-03-15T21:02:49.271Z,97825.97
2023-03-15T21:05:18.594Z,97829.66
2023-03-15T21:07:46.961Z,97827.25
2023-03-15T21:10:15.640Z,97828.41
2023-03-15T21:12:44.015Z,97828.56
2023-03-15T21:15:15.421Z,97833.16
2023-03-15T21:17:43.541Z,97829.88
2023-03-15T21:20:15.877Z,97818.28
2023-03-15T21:22:43.955Z,97808.03
2023-03-15T21:25:13.402Z,97812.00
2023-03-15T21:27:41.819Z,97807.47
2023-03-15T21:30:13.946Z,97812.31
2023-03-15T21:32:42.945Z,97809.28
2023-03-15T21:35:13.367Z,97798.63
2023-03-15T21:37:41.754Z,97803.22
2023-03-15T21:40:11.536Z,97802.50
2023-03-15T21:42:42.707Z,97800.25
2023-03-15T21:45:12.386Z,97794.97
2023-03-15T21:47:41.070Z,97800.41
2023-03-15T21:50:11.710Z,97798.63
2023-03-15T21:52:41.492Z,97796.75
2023-03-15T21:55:10.540Z,97804.69
2023-03-15T21:57:38.603Z,97799.22
2023-03-15T22:00:16.808Z,97790.22
2023-03-15T22:02:44.952Z,97791.75
2023-03-15T22:05:13.302Z,97782.69
2023-03-15T22:07:42.890Z,97789.97
2023-03-15T22:10:12.126Z,97790.66
2023-03-15T22:12:40.336Z,97787.56
2023-03-15T22:15:09.670Z,97792.50
2023-03-15T22:17:38.169Z,97782.56
2023-03-15T22:20:09.513Z,97781.25
2023-03-15T22:22:38.250Z,97785.53
2023-03-15T22:25:08.242Z,97784.38
2023-03-15T22:27:36.210Z,97786.88
2023-03-15T22:30:04.728Z,97782.25
2023-03-15T22:32:32.908Z,97783.88
2023-03-15T22:35:00.976Z,97781.19
2023-03-15T22:37:29.062Z,97789.97
2023-03-15T22:39:57.215Z,97780.81
2023-03-15T22:42:26.627Z,97778.34
2023-03-15T22:44:54.657Z,97779.75
2023-03-15T22:47:22.793Z,97778.97
2023-03-15T22:49:52.117Z,97780.69
2023-03-15T22:52:20.154Z,97778.16
2023-03-15T22:54:48.992Z,97777.50
2023-03-15T22:57:17.594Z,97772.34
2023-03-15T22:59:47.552Z,97776.56
2023-03-15T23:02:15.907Z,97774.47
2023-03-15T23:04:45.356Z,97772.44
2023-03-15T23:07:13.428Z,97772.19
2023-03-15T23:09:41.467Z,97768.19
2023-03-15T23:12:09.971Z,97775.63
2023-03-15T23:14:38.019Z,97774.75
2023-03-15T23:17:07.537Z,97774.44
2023-03-15T23:19:35.589Z,97774.28
2023-03-15T23:22:04.428Z,97771.00
2023-03-15T23:24:34.048Z,97770.22
2023-03-15T23:27:04.577Z,97764.78
2023-03-15T23:29:38.065Z,97775.59
2023-03-15T23:32:13.320Z,97773.06
2023-03-15T23:34:42.967Z,97770.69
2023-03-15T23:37:11.309Z,97781.69
2023-03-15T23:39:39.371Z,97780.94
2023-03-15T23:42:08.110Z,97784.78
2023-03-15T23:44:36.952Z,97783.28
2023-03-15T23:47:05.767Z,97791.78
2023-03-15T23:49:35.357Z,97792.19
2023-03-15T23:52:05.834Z,97780.66
2023-03-15T23:54:39.709Z,97781.53
2023-03-15T23:57:08.096Z,97780.91
2023-03-15T23:59:36.794Z,97778.56
